sensor_id;sensor_type;location;lat;lon;timestamp;temperature;humidity
44817;DHT22;30529;53.570;9.964;2022-10-22T00:01:36;14.90;99.90
44817;DHT22;30529;53.570;9.964;2022-10-22T00:04:04;14.90;99.90
44817;DHT22;30529;53.570;9.964;2022-10-22T00:06:31;14.90;99.90
44817;DHT22;30529;53.570;9.964;2022-10-22T00:08:58;14.90;99.90
44817;DHT22;30529;53.570;9.964;2022-10-22T00:11:27;14.90;99.90
44817;DHT22;30529;53.570;9.964;2022-10-22T00:13:56;14.90;99.90
44817;DHT22;30529;53.570;9.964;2022-10-22T00:16:22;14.90;99.90
44817;DHT22;30529;53.570;9.964;2022-10-22T00:18:49;14.90;99.90
44817;DHT22;30529;53.570;9.964;2022-10-22T00:21:15;14.90;99.90
44817;DHT22;30529;53.570;9.964;2022-10-22T00:23:41;14.80;99.90
44817;DHT22;30529;53.570;9.964;2022-10-22T00:26:09;14.80;99.90
44817;DHT22;30529;53.570;9.964;2022-10-22T00:28:35;14.80;99.90
44817;DHT22;30529;53.570;9.964;2022-10-22T00:31:01;14.80;99.90
44817;DHT22;30529;53.570;9.964;2022-10-22T00:33:28;14.80;99.90
44817;DHT22;30529;53.570;9.964;2022-10-22T00:35:55;14.80;99.90
44817;DHT22;30529;53.570;9.964;2022-10-22T00:38:21;14.90;99.90
44817;DHT22;30529;53.570;9.964;2022-10-22T00:40:47;14.90;99.90
44817;DHT22;30529;53.570;9.964;2022-10-22T00:43:16;14.90;99.90
44817;DHT22;30529;53.570;9.964;2022-10-22T00:45:43;14.90;99.90
44817;DHT22;30529;53.570;9.964;2022-10-22T00:48:34;14.90;99.90
44817;DHT22;30529;53.570;9.964;2022-10-22T00:51:03;14.90;99.90
44817;DHT22;30529;53.570;9.964;2022-10-22T00:53:46;14.90;99.90
44817;DHT22;30529;53.570;9.964;2022-10-22T00:56:14;14.90;99.90
44817;DHT22;30529;53.570;9.964;2022-10-22T00:58:45;14.90;99.90
44817;DHT22;30529;53.570;9.964;2022-10-22T01:01:17;14.90;99.90
44817;DHT22;30529;53.570;9.964;2022-10-22T01:03:49;14.90;99.90
44817;DHT22;30529;53.570;9.964;2022-10-22T01:06:26;14.90;99.90
44817;DHT22;30529;53.570;9.964;2022-10-22T01:09:00;14.90;99.90
44817;DHT22;30529;53.570;9.964;2022-10-22T01:17:10;14.90;99.90
44817;DHT22;30529;53.570;9.964;2022-10-22T01:22:38;14.90;99.90
44817;DHT22;30529;53.570;9.964;2022-10-22T01:30:55;14.80;99.90
44817;DHT22;30529;53.570;9.964;2022-10-22T01:33:24;14.70;99.90
44817;DHT22;30529;53.570;9.964;2022-10-22T01:35:51;14.60;99.90
44817;DHT22;30529;53.570;9.964;2022-10-22T01:38:20;14.50;99.90
44817;DHT22;30529;53.570;9.964;2022-10-22T01:40:48;14.40;99.90
44817;DHT22;30529;53.570;9.964;2022-10-22T01:43:15;14.40;99.90
44817;DHT22;30529;53.570;9.964;2022-10-22T01:48:15;14.30;99.90
44817;DHT22;30529;53.570;9.964;2022-10-22T01:54:04;14.10;99.90
44817;DHT22;30529;53.570;9.964;2022-10-22T01:56:57;14.00;99.90
44817;DHT22;30529;53.570;9.964;2022-10-22T02:05:00;13.90;99.90
44817;DHT22;30529;53.570;9.964;2022-10-22T02:07:32;13.80;99.90
44817;DHT22;30529;53.570;9.964;2022-10-22T02:10:00;13.80;99.90
44817;DHT22;30529;53.570;9.964;2022-10-22T02:12:28;13.80;99.90
44817;DHT22;30529;53.570;9.964;2022-10-22T02:14:56;13.70;99.90
44817;DHT22;30529;53.570;9.964;2022-10-22T02:17:25;13.70;99.90
44817;DHT22;30529;53.570;9.964;2022-10-22T02:20:00;13.70;99.90
44817;DHT22;30529;53.570;9.964;2022-10-22T02:22:28;13.70;99.90
44817;DHT22;30529;53.570;9.964;2022-10-22T02:24:55;13.70;99.90
44817;DHT22;30529;53.570;9.964;2022-10-22T02:27:26;13.60;99.90
44817;DHT22;30529;53.570;9.964;2022-10-22T02:30:04;13.60;99.90
44817;DHT22;30529;53.570;9.964;2022-10-22T02:32:56;13.60;99.90
44817;DHT22;30529;53.570;9.964;2022-10-22T02:35:25;13.60;99.90
44817;DHT22;30529;53.570;9.964;2022-10-22T02:37:54;13.60;99.90
44817;DHT22;30529;53.570;9.964;2022-10-22T02:40:21;13.60;99.90
44817;DHT22;30529;53.570;9.964;2022-10-22T02:42:49;13.60;99.90
44817;DHT22;30529;53.570;9.964;2022-10-22T02:45:16;13.60;99.90
44817;DHT22;30529;53.570;9.964;2022-10-22T02:47:43;13.60;99.90
44817;DHT22;30529;53.570;9.964;2022-10-22T02:50:09;13.60;99.90
44817;DHT22;30529;53.570;9.964;2022-10-22T02:52:36;13.60;99.90
44817;DHT22;30529;53.570;9.964;2022-10-22T02:55:03;13.60;99.90
44817;DHT22;30529;53.570;9.964;2022-10-22T02:57:29;13.50;99.90
44817;DHT22;30529;53.570;9.964;2022-10-22T02:59:55;13.50;99.90
44817;DHT22;30529;53.570;9.964;2022-10-22T03:02:21;13.50;99.90
44817;DHT22;30529;53.570;9.964;2022-10-22T03:04:51;13.50;99.90
44817;DHT22;30529;53.570;9.964;2022-10-22T03:07:17;13.50;99.90
44817;DHT22;30529;53.570;9.964;2022-10-22T03:09:43;13.50;99.90
44817;DHT22;30529;53.570;9.964;2022-10-22T03:12:09;13.40;99.90
44817;DHT22;30529;53.570;9.964;2022-10-22T03:14:35;13.40;99.90
44817;DHT22;30529;53.570;9.964;2022-10-22T03:17:02;13.40;99.90
44817;DHT22;30529;53.570;9.964;2022-10-22T03:19:28;13.40;99.90
44817;DHT22;30529;53.570;9.964;2022-10-22T03:21:57;13.40;99.90
44817;DHT22;30529;53.570;9.964;2022-10-22T03:24:27;13.40;99.90
44817;DHT22;30529;53.570;9.964;2022-10-22T03:26:55;13.30;99.90
44817;DHT22;30529;53.570;9.964;2022-10-22T03:29:23;13.40;99.90
44817;DHT22;30529;53.570;9.964;2022-10-22T03:31:51;13.40;99.90
44817;DHT22;30529;53.570;9.964;2022-10-22T03:34:17;13.40;99.90
44817;DHT22;30529;53.570;9.964;2022-10-22T03:36:44;13.30;99.90
44817;DHT22;30529;53.570;9.964;2022-10-22T03:39:12;13.30;99.90
44817;DHT22;30529;53.570;9.964;2022-10-22T03:41:39;13.30;99.90
44817;DHT22;30529;53.570;9.964;2022-10-22T03:44:06;13.30;99.90
44817;DHT22;30529;53.570;9.964;2022-10-22T03:46:32;13.30;99.90
44817;DHT22;30529;53.570;9.964;2022-10-22T03:48:58;13.30;99.90
44817;DHT22;30529;53.570;9.964;2022-10-22T03:51:27;13.30;99.90
44817;DHT22;30529;53.570;9.964;2022-10-22T03:53:54;13.30;99.90
44817;DHT22;30529;53.570;9.964;2022-10-22T03:56:20;13.30;99.90
44817;DHT22;30529;53.570;9.964;2022-10-22T03:58:46;13.30;99.90
44817;DHT22;30529;53.570;9.964;2022-10-22T04:01:13;13.20;99.90
44817;DHT22;30529;53.570;9.964;2022-10-22T04:03:39;13.20;99.90
44817;DHT22;30529;53.570;9.964;2022-10-22T04:06:08;13.20;99.90
44817;DHT22;30529;53.570;9.964;2022-10-22T04:08:35;13.20;99.90
44817;DHT22;30529;53.570;9.964;2022-10-22T04:11:01;13.20;99.90
44817;DHT22;30529;53.570;9.964;2022-10-22T04:13:27;13.20;99.90
44817;DHT22;30529;53.570;9.964;2022-10-22T04:15:53;13.20;99.90
44817;DHT22;30529;53.570;9.964;2022-10-22T04:18:21;13.20;99.90
44817;DHT22;30529;53.570;9.964;2022-10-22T04:20:48;13.20;99.90
44817;DHT22;30529;53.570;9.964;2022-10-22T04:23:16;13.20;99.90
44817;DHT22;30529;53.570;9.964;2022-10-22T04:25:42;13.20;99.90
44817;DHT22;30529;53.570;9.964;2022-10-22T04:28:09;13.10;99.90
44817;DHT22;30529;53.570;9.964;2022-10-22T04:30:35;13.10;99.90
44817;DHT22;30529;53.570;9.964;2022-10-22T04:33:01;13.10;99.90
44817;DHT22;30529;53.570;9.964;2022-10-22T04:35:28;13.10;99.90
44817;DHT22;30529;53.570;9.964;2022-10-22T04:37:55;13.10;99.90
44817;DHT22;30529;53.570;9.964;2022-10-22T04:40:21;13.10;99.90
44817;DHT22;30529;53.570;9.964;2022-10-22T04:42:47;13.10;99.90
44817;DHT22;30529;53.570;9.964;2022-10-22T04:45:13;13.10;99.90
44817;DHT22;30529;53.570;9.964;2022-10-22T04:47:40;13.10;99.90
44817;DHT22;30529;53.570;9.964;2022-10-22T04:50:07;13.10;99.90
44817;DHT22;30529;53.570;9.964;2022-10-22T04:52:33;13.10;99.90
44817;DHT22;30529;53.570;9.964;2022-10-22T04:54:59;13.10;99.90
44817;DHT22;30529;53.570;9.964;2022-10-22T04:57:29;13.10;99.90
44817;DHT22;30529;53.570;9.964;2022-10-22T04:59:55;13.10;99.90
44817;DHT22;30529;53.570;9.964;2022-10-22T05:02:22;13.00;99.90
44817;DHT22;30529;53.570;9.964;2022-10-22T05:04:48;13.10;99.90
44817;DHT22;30529;53.570;9.964;2022-10-22T05:07:14;13.00;99.90
44817;DHT22;30529;53.570;9.964;2022-10-22T05:09:40;13.00;99.90
44817;DHT22;30529;53.570;9.964;2022-10-22T05:12:06;13.00;99.90
44817;DHT22;30529;53.570;9.964;2022-10-22T05:14:32;13.00;99.90
44817;DHT22;30529;53.570;9.964;2022-10-22T05:16:58;13.00;99.90
44817;DHT22;30529;53.570;9.964;2022-10-22T05:19:27;13.00;99.90
44817;DHT22;30529;53.570;9.964;2022-10-22T05:21:57;13.00;99.90
44817;DHT22;30529;53.570;9.964;2022-10-22T05:24:24;13.00;99.90
44817;DHT22;30529;53.570;9.964;2022-10-22T05:26:52;13.00;99.90
44817;DHT22;30529;53.570;9.964;2022-10-22T05:29:19;13.00;99.90
44817;DHT22;30529;53.570;9.964;2022-10-22T05:31:46;13.00;99.90
44817;DHT22;30529;53.570;9.964;2022-10-22T05:34:12;13.00;99.90
44817;DHT22;30529;53.570;9.964;2022-10-22T05:36:38;13.00;99.90
44817;DHT22;30529;53.570;9.964;2022-10-22T05:39:05;13.00;99.90
44817;DHT22;30529;53.570;9.964;2022-10-22T05:41:33;13.00;99.90
44817;DHT22;30529;53.570;9.964;2022-10-22T05:44:01;13.00;99.90
44817;DHT22;30529;53.570;9.964;2022-10-22T05:46:29;13.00;99.90
44817;DHT22;30529;53.570;9.964;2022-10-22T05:49:00;12.90;99.90
44817;DHT22;30529;53.570;9.964;2022-10-22T05:51:29;13.00;99.90
44817;DHT22;30529;53.570;9.964;2022-10-22T05:53:58;13.00;99.90
44817;DHT22;30529;53.570;9.964;2022-10-22T05:56:25;13.00;99.90
44817;DHT22;30529;53.570;9.964;2022-10-22T05:58:52;13.00;99.90
44817;DHT22;30529;53.570;9.964;2022-10-22T06:01:24;13.00;99.90
44817;DHT22;30529;53.570;9.964;2022-10-22T06:03:55;13.00;99.90
44817;DHT22;30529;53.570;9.964;2022-10-22T06:06:39;13.00;99.90
44817;DHT22;30529;53.570;9.964;2022-10-22T06:11:39;13.00;99.90
44817;DHT22;30529;53.570;9.964;2022-10-22T06:14:05;13.00;99.90
44817;DHT22;30529;53.570;9.964;2022-10-22T06:16:31;13.00;99.90
44817;DHT22;30529;53.570;9.964;2022-10-22T06:18:59;13.00;99.90
44817;DHT22;30529;53.570;9.964;2022-10-22T06:21:28;13.00;99.90
44817;DHT22;30529;53.570;9.964;2022-10-22T06:23:56;13.00;99.90
44817;DHT22;30529;53.570;9.964;2022-10-22T06:26:23;13.00;99.90
44817;DHT22;30529;53.570;9.964;2022-10-22T06:28:49;13.00;99.90
44817;DHT22;30529;53.570;9.964;2022-10-22T06:31:15;13.00;99.90
44817;DHT22;30529;53.570;9.964;2022-10-22T06:33:41;13.00;99.90
44817;DHT22;30529;53.570;9.964;2022-10-22T06:36:17;13.00;99.90
44817;DHT22;30529;53.570;9.964;2022-10-22T06:38:43;13.10;99.90
44817;DHT22;30529;53.570;9.964;2022-10-22T06:41:12;13.10;99.90
44817;DHT22;30529;53.570;9.964;2022-10-22T06:43:39;13.10;99.90
44817;DHT22;30529;53.570;9.964;2022-10-22T06:46:07;13.10;99.90
44817;DHT22;30529;53.570;9.964;2022-10-22T06:48:40;13.10;99.90
44817;DHT22;30529;53.570;9.964;2022-10-22T06:51:10;13.20;99.90
44817;DHT22;30529;53.570;9.964;2022-10-22T06:53:37;13.20;99.90
44817;DHT22;30529;53.570;9.964;2022-10-22T06:56:09;13.20;99.90
44817;DHT22;30529;53.570;9.964;2022-10-22T06:58:35;13.30;99.90
44817;DHT22;30529;53.570;9.964;2022-10-22T07:01:10;13.30;99.90
44817;DHT22;30529;53.570;9.964;2022-10-22T07:03:38;13.30;99.90
44817;DHT22;30529;53.570;9.964;2022-10-22T07:06:06;13.20;99.90
44817;DHT22;30529;53.570;9.964;2022-10-22T07:08:33;13.30;99.90
44817;DHT22;30529;53.570;9.964;2022-10-22T07:11:13;13.30;99.90
44817;DHT22;30529;53.570;9.964;2022-10-22T07:13:40;13.30;99.90
44817;DHT22;30529;53.570;9.964;2022-10-22T07:16:07;13.40;99.90
44817;DHT22;30529;53.570;9.964;2022-10-22T07:18:35;13.50;99.90
44817;DHT22;30529;53.570;9.964;2022-10-22T07:21:02;13.50;99.90
44817;DHT22;30529;53.570;9.964;2022-10-22T07:23:29;13.50;99.90
44817;DHT22;30529;53.570;9.964;2022-10-22T07:25:55;13.60;99.90
44817;DHT22;30529;53.570;9.964;2022-10-22T07:28:22;13.70;99.90
44817;DHT22;30529;53.570;9.964;2022-10-22T07:30:48;13.70;99.90
44817;DHT22;30529;53.570;9.964;2022-10-22T07:33:15;13.80;99.90
44817;DHT22;30529;53.570;9.964;2022-10-22T07:35:42;13.90;99.90
44817;DHT22;30529;53.570;9.964;2022-10-22T07:38:08;14.00;99.90
44817;DHT22;30529;53.570;9.964;2022-10-22T07:40:34;14.00;99.90
44817;DHT22;30529;53.570;9.964;2022-10-22T07:43:01;14.00;99.90
44817;DHT22;30529;53.570;9.964;2022-10-22T07:45:28;14.10;99.90
44817;DHT22;30529;53.570;9.964;2022-10-22T07:47:54;14.10;99.90
44817;DHT22;30529;53.570;9.964;2022-10-22T07:50:20;14.10;99.90
44817;DHT22;30529;53.570;9.964;2022-10-22T07:52:46;14.20;99.90
44817;DHT22;30529;53.570;9.964;2022-10-22T07:55:12;14.20;99.90
44817;DHT22;30529;53.570;9.964;2022-10-22T07:57:39;14.20;99.90
44817;DHT22;30529;53.570;9.964;2022-10-22T08:00:08;14.30;99.90
44817;DHT22;30529;53.570;9.964;2022-10-22T08:02:34;14.40;99.90
44817;DHT22;30529;53.570;9.964;2022-10-22T08:05:00;14.40;99.90
44817;DHT22;30529;53.570;9.964;2022-10-22T08:07:26;14.50;99.90
44817;DHT22;30529;53.570;9.964;2022-10-22T08:09:53;14.60;99.90
44817;DHT22;30529;53.570;9.964;2022-10-22T08:12:28;14.60;99.90
44817;DHT22;30529;53.570;9.964;2022-10-22T08:14:54;14.60;99.90
44817;DHT22;30529;53.570;9.964;2022-10-22T08:17:20;14.70;99.90
44817;DHT22;30529;53.570;9.964;2022-10-22T08:19:56;14.70;99.90
44817;DHT22;30529;53.570;9.964;2022-10-22T08:22:25;14.70;99.90
44817;DHT22;30529;53.570;9.964;2022-10-22T08:24:51;14.70;99.90
44817;DHT22;30529;53.570;9.964;2022-10-22T08:27:18;14.80;99.90
44817;DHT22;30529;53.570;9.964;2022-10-22T08:29:44;14.80;99.90
44817;DHT22;30529;53.570;9.964;2022-10-22T08:32:13;14.80;99.90
44817;DHT22;30529;53.570;9.964;2022-10-22T08:34:39;14.90;99.90
44817;DHT22;30529;53.570;9.964;2022-10-22T08:37:05;14.90;99.90
44817;DHT22;30529;53.570;9.964;2022-10-22T08:39:33;14.80;99.90
44817;DHT22;30529;53.570;9.964;2022-10-22T08:50:44;14.90;99.90
44817;DHT22;30529;53.570;9.964;2022-10-22T08:53:21;14.90;99.90
44817;DHT22;30529;53.570;9.964;2022-10-22T08:55:52;14.90;99.90
44817;DHT22;30529;53.570;9.964;2022-10-22T08:58:21;14.90;99.90
44817;DHT22;30529;53.570;9.964;2022-10-22T09:01:05;14.90;99.90
44817;DHT22;30529;53.570;9.964;2022-10-22T09:06:26;14.90;99.90
44817;DHT22;30529;53.570;9.964;2022-10-22T09:08:53;14.90;99.90
44817;DHT22;30529;53.570;9.964;2022-10-22T09:11:31;14.90;99.90
44817;DHT22;30529;53.570;9.964;2022-10-22T09:13:58;14.90;99.90
44817;DHT22;30529;53.570;9.964;2022-10-22T09:22:23;15.00;99.90
44817;DHT22;30529;53.570;9.964;2022-10-22T09:25:18;15.00;99.90
44817;DHT22;30529;53.570;9.964;2022-10-22T09:27:43;15.00;99.90
44817;DHT22;30529;53.570;9.964;2022-10-22T09:30:21;15.10;99.90
44817;DHT22;30529;53.570;9.964;2022-10-22T09:33:00;15.20;99.90
44817;DHT22;30529;53.570;9.964;2022-10-22T09:35:27;15.20;99.90
44817;DHT22;30529;53.570;9.964;2022-10-22T09:37:55;15.20;99.90
44817;DHT22;30529;53.570;9.964;2022-10-22T09:40:22;15.30;99.90
44817;DHT22;30529;53.570;9.964;2022-10-22T09:42:48;15.30;99.90
44817;DHT22;30529;53.570;9.964;2022-10-22T09:45:19;15.40;99.90
44817;DHT22;30529;53.570;9.964;2022-10-22T09:47:46;15.40;99.90
44817;DHT22;30529;53.570;9.964;2022-10-22T09:50:48;15.50;99.90
44817;DHT22;30529;53.570;9.964;2022-10-22T09:55:40;15.60;99.90
44817;DHT22;30529;53.570;9.964;2022-10-22T09:58:10;15.70;99.90
44817;DHT22;30529;53.570;9.964;2022-10-22T10:00:43;15.80;99.90
44817;DHT22;30529;53.570;9.964;2022-10-22T10:03:19;15.80;99.90
44817;DHT22;30529;53.570;9.964;2022-10-22T10:05:48;15.90;99.90
44817;DHT22;30529;53.570;9.964;2022-10-22T10:08:16;16.00;99.90
44817;DHT22;30529;53.570;9.964;2022-10-22T10:19:29;15.90;99.90
44817;DHT22;30529;53.570;9.964;2022-10-22T10:27:40;15.90;99.90
44817;DHT22;30529;53.570;9.964;2022-10-22T10:30:16;15.90;99.90
44817;DHT22;30529;53.570;9.964;2022-10-22T10:35:45;16.10;99.90
44817;DHT22;30529;53.570;9.964;2022-10-22T10:38:37;16.10;99.90
44817;DHT22;30529;53.570;9.964;2022-10-22T10:43:51;16.20;99.90
44817;DHT22;30529;53.570;9.964;2022-10-22T10:46:24;16.30;99.90
44817;DHT22;30529;53.570;9.964;2022-10-22T10:54:30;16.30;99.90
44817;DHT22;30529;53.570;9.964;2022-10-22T11:08:00;16.70;99.90
44817;DHT22;30529;53.570;9.964;2022-10-22T11:10:54;16.80;99.90
44817;DHT22;30529;53.570;9.964;2022-10-22T11:13:37;17.00;99.90
44817;DHT22;30529;53.570;9.964;2022-10-22T11:16:23;17.10;99.90
44817;DHT22;30529;53.570;9.964;2022-10-22T11:21:37;17.30;99.90
44817;DHT22;30529;53.570;9.964;2022-10-22T11:27:00;17.20;99.90
44817;DHT22;30529;53.570;9.964;2022-10-22T11:29:45;17.20;99.90
44817;DHT22;30529;53.570;9.964;2022-10-22T11:32:17;17.20;99.90
44817;DHT22;30529;53.570;9.964;2022-10-22T11:34:47;17.20;99.90
44817;DHT22;30529;53.570;9.964;2022-10-22T11:37:15;17.20;99.90
44817;DHT22;30529;53.570;9.964;2022-10-22T11:39:53;17.30;99.90
44817;DHT22;30529;53.570;9.964;2022-10-22T11:42:33;17.40;99.90
44817;DHT22;30529;53.570;9.964;2022-10-22T11:45:22;17.40;99.90
44817;DHT22;30529;53.570;9.964;2022-10-22T11:48:11;17.40;99.90
44817;DHT22;30529;53.570;9.964;2022-10-22T11:50:57;17.50;99.90
44817;DHT22;30529;53.570;9.964;2022-10-22T11:55:55;17.60;99.90
44817;DHT22;30529;53.570;9.964;2022-10-22T12:11:19;17.70;99.90
44817;DHT22;30529;53.570;9.964;2022-10-22T12:16:46;17.90;99.90
44817;DHT22;30529;53.570;9.964;2022-10-22T12:19:28;17.90;99.90
44817;DHT22;30529;53.570;9.964;2022-10-22T12:21:59;17.90;99.90
44817;DHT22;30529;53.570;9.964;2022-10-22T12:24:33;17.90;99.90
44817;DHT22;30529;53.570;9.964;2022-10-22T12:27:00;17.90;99.90
44817;DHT22;30529;53.570;9.964;2022-10-22T12:29:26;17.80;99.90
44817;DHT22;30529;53.570;9.964;2022-10-22T12:31:53;17.80;99.90
44817;DHT22;30529;53.570;9.964;2022-10-22T12:34:23;17.80;99.90
44817;DHT22;30529;53.570;9.964;2022-10-22T12:36:53;17.80;99.90
44817;DHT22;30529;53.570;9.964;2022-10-22T12:39:22;17.80;99.90
44817;DHT22;30529;53.570;9.964;2022-10-22T12:41:51;17.70;99.90
44817;DHT22;30529;53.570;9.964;2022-10-22T12:44:18;17.70;99.90
44817;DHT22;30529;53.570;9.964;2022-10-22T12:46:46;17.70;99.90
44817;DHT22;30529;53.570;9.964;2022-10-22T12:49:20;17.70;99.90
44817;DHT22;30529;53.570;9.964;2022-10-22T12:51:48;17.70;99.90
44817;DHT22;30529;53.570;9.964;2022-10-22T12:54:26;17.70;99.90
44817;DHT22;30529;53.570;9.964;2022-10-22T12:56:54;17.70;99.90
44817;DHT22;30529;53.570;9.964;2022-10-22T13:01:50;17.80;99.90
44817;DHT22;30529;53.570;9.964;2022-10-22T13:07:22;17.90;99.90
44817;DHT22;30529;53.570;9.964;2022-10-22T13:12:25;18.20;99.90
44817;DHT22;30529;53.570;9.964;2022-10-22T13:14:51;18.40;99.90
44817;DHT22;30529;53.570;9.964;2022-10-22T13:20:14;18.40;99.90
44817;DHT22;30529;53.570;9.964;2022-10-22T13:22:52;18.40;99.90
44817;DHT22;30529;53.570;9.964;2022-10-22T13:25:22;18.40;99.90
44817;DHT22;30529;53.570;9.964;2022-10-22T13:28:01;18.40;99.90
44817;DHT22;30529;53.570;9.964;2022-10-22T13:30:33;18.40;99.90
44817;DHT22;30529;53.570;9.964;2022-10-22T13:35:33;18.20;99.90
44817;DHT22;30529;53.570;9.964;2022-10-22T13:37:59;18.20;99.90
44817;DHT22;30529;53.570;9.964;2022-10-22T13:40:26;18.20;99.90
44817;DHT22;30529;53.570;9.964;2022-10-22T13:42:52;18.20;99.90
44817;DHT22;30529;53.570;9.964;2022-10-22T13:45:19;18.20;99.90
44817;DHT22;30529;53.570;9.964;2022-10-22T13:47:50;18.10;99.90
44817;DHT22;30529;53.570;9.964;2022-10-22T13:50:19;18.00;99.90
44817;DHT22;30529;53.570;9.964;2022-10-22T13:52:56;18.00;99.90
44817;DHT22;30529;53.570;9.964;2022-10-22T13:55:25;17.90;99.90
44817;DHT22;30529;53.570;9.964;2022-10-22T13:58:09;17.90;99.90
44817;DHT22;30529;53.570;9.964;2022-10-22T14:00:37;17.80;99.90
44817;DHT22;30529;53.570;9.964;2022-10-22T14:03:04;17.80;99.90
44817;DHT22;30529;53.570;9.964;2022-10-22T14:05:30;17.80;99.90
44817;DHT22;30529;53.570;9.964;2022-10-22T14:08:01;17.90;99.90
44817;DHT22;30529;53.570;9.964;2022-10-22T14:10:27;18.10;99.90
44817;DHT22;30529;53.570;9.964;2022-10-22T14:12:53;18.20;99.90
44817;DHT22;30529;53.570;9.964;2022-10-22T14:15:22;18.20;99.90
44817;DHT22;30529;53.570;9.964;2022-10-22T14:17:56;18.30;99.90
44817;DHT22;30529;53.570;9.964;2022-10-22T14:20:25;18.30;99.90
44817;DHT22;30529;53.570;9.964;2022-10-22T14:22:53;18.30;99.90
44817;DHT22;30529;53.570;9.964;2022-10-22T14:25:24;18.40;99.90
44817;DHT22;30529;53.570;9.964;2022-10-22T14:27:51;18.50;99.90
44817;DHT22;30529;53.570;9.964;2022-10-22T14:30:20;18.70;99.90
44817;DHT22;30529;53.570;9.964;2022-10-22T14:32:47;18.80;99.90
44817;DHT22;30529;53.570;9.964;2022-10-22T14:35:16;18.80;99.90
44817;DHT22;30529;53.570;9.964;2022-10-22T14:37:43;18.80;99.90
44817;DHT22;30529;53.570;9.964;2022-10-22T14:40:13;18.70;99.90
44817;DHT22;30529;53.570;9.964;2022-10-22T14:42:42;18.40;99.90
44817;DHT22;30529;53.570;9.964;2022-10-22T14:45:23;18.20;99.90
44817;DHT22;30529;53.570;9.964;2022-10-22T14:47:50;18.10;99.90
44817;DHT22;30529;53.570;9.964;2022-10-22T14:50:18;17.90;99.90
44817;DHT22;30529;53.570;9.964;2022-10-22T14:52:44;17.70;99.90
44817;DHT22;30529;53.570;9.964;2022-10-22T14:55:12;17.50;99.90
44817;DHT22;30529;53.570;9.964;2022-10-22T14:57:39;17.40;99.90
44817;DHT22;30529;53.570;9.964;2022-10-22T15:00:14;17.40;99.90
44817;DHT22;30529;53.570;9.964;2022-10-22T15:02:41;17.40;99.90
44817;DHT22;30529;53.570;9.964;2022-10-22T15:05:07;17.50;99.90
44817;DHT22;30529;53.570;9.964;2022-10-22T15:07:38;17.50;99.90
44817;DHT22;30529;53.570;9.964;2022-10-22T15:10:06;17.50;99.90
44817;DHT22;30529;53.570;9.964;2022-10-22T15:12:33;17.40;99.90
44817;DHT22;30529;53.570;9.964;2022-10-22T15:14:59;17.40;99.90
44817;DHT22;30529;53.570;9.964;2022-10-22T15:17:25;17.40;99.90
44817;DHT22;30529;53.570;9.964;2022-10-22T15:19:51;17.40;99.90
44817;DHT22;30529;53.570;9.964;2022-10-22T15:22:19;17.30;99.90
44817;DHT22;30529;53.570;9.964;2022-10-22T15:24:45;17.10;99.90
44817;DHT22;30529;53.570;9.964;2022-10-22T15:27:13;17.00;99.90
44817;DHT22;30529;53.570;9.964;2022-10-22T15:29:41;16.90;99.90
44817;DHT22;30529;53.570;9.964;2022-10-22T15:32:07;16.80;99.90
44817;DHT22;30529;53.570;9.964;2022-10-22T15:34:41;16.80;99.90
44817;DHT22;30529;53.570;9.964;2022-10-22T15:37:12;16.90;99.90
44817;DHT22;30529;53.570;9.964;2022-10-22T15:39:40;16.90;99.90
44817;DHT22;30529;53.570;9.964;2022-10-22T15:42:07;16.90;99.90
44817;DHT22;30529;53.570;9.964;2022-10-22T15:44:33;16.90;99.90
44817;DHT22;30529;53.570;9.964;2022-10-22T15:47:02;16.90;99.90
44817;DHT22;30529;53.570;9.964;2022-10-22T15:49:29;16.80;99.90
44817;DHT22;30529;53.570;9.964;2022-10-22T15:51:55;16.80;99.90
44817;DHT22;30529;53.570;9.964;2022-10-22T15:54:26;16.70;99.90
44817;DHT22;30529;53.570;9.964;2022-10-22T15:56:57;16.70;99.90
44817;DHT22;30529;53.570;9.964;2022-10-22T15:59:23;16.70;99.90
44817;DHT22;30529;53.570;9.964;2022-10-22T16:01:50;16.70;99.90
44817;DHT22;30529;53.570;9.964;2022-10-22T16:04:17;16.60;99.90
44817;DHT22;30529;53.570;9.964;2022-10-22T16:06:46;16.60;99.90
44817;DHT22;30529;53.570;9.964;2022-10-22T16:09:15;16.50;99.90
44817;DHT22;30529;53.570;9.964;2022-10-22T16:11:43;16.50;99.90
44817;DHT22;30529;53.570;9.964;2022-10-22T16:14:14;16.50;99.90
44817;DHT22;30529;53.570;9.964;2022-10-22T16:20:39;16.40;99.90
44817;DHT22;30529;53.570;9.964;2022-10-22T16:26:48;16.30;99.90
44817;DHT22;30529;53.570;9.964;2022-10-22T16:29:14;16.30;99.90
44817;DHT22;30529;53.570;9.964;2022-10-22T16:31:41;16.30;99.90
44817;DHT22;30529;53.570;9.964;2022-10-22T16:34:09;16.20;99.90
44817;DHT22;30529;53.570;9.964;2022-10-22T16:36:41;16.20;99.90
44817;DHT22;30529;53.570;9.964;2022-10-22T16:39:09;16.20;99.90
44817;DHT22;30529;53.570;9.964;2022-10-22T16:41:36;16.20;99.90
44817;DHT22;30529;53.570;9.964;2022-10-22T16:44:05;16.20;99.90
44817;DHT22;30529;53.570;9.964;2022-10-22T16:46:32;16.20;99.90
44817;DHT22;30529;53.570;9.964;2022-10-22T16:48:58;16.20;99.90
44817;DHT22;30529;53.570;9.964;2022-10-22T16:51:26;16.20;99.90
44817;DHT22;30529;53.570;9.964;2022-10-22T16:53:54;16.20;99.90
44817;DHT22;30529;53.570;9.964;2022-10-22T16:56:20;16.10;99.90
44817;DHT22;30529;53.570;9.964;2022-10-22T16:58:52;16.10;99.90
44817;DHT22;30529;53.570;9.964;2022-10-22T17:01:20;16.10;99.90
44817;DHT22;30529;53.570;9.964;2022-10-22T17:03:46;16.10;99.90
44817;DHT22;30529;53.570;9.964;2022-10-22T17:06:13;16.10;99.90
44817;DHT22;30529;53.570;9.964;2022-10-22T17:08:40;16.10;99.90
44817;DHT22;30529;53.570;9.964;2022-10-22T17:11:13;16.10;99.90
44817;DHT22;30529;53.570;9.964;2022-10-22T17:13:43;16.10;99.90
44817;DHT22;30529;53.570;9.964;2022-10-22T17:16:11;16.10;99.90
44817;DHT22;30529;53.570;9.964;2022-10-22T17:18:39;16.10;99.90
44817;DHT22;30529;53.570;9.964;2022-10-22T17:21:07;16.10;99.90
44817;DHT22;30529;53.570;9.964;2022-10-22T17:23:34;16.10;99.90
44817;DHT22;30529;53.570;9.964;2022-10-22T17:26:06;16.10;99.90
44817;DHT22;30529;53.570;9.964;2022-10-22T17:28:33;16.00;99.90
44817;DHT22;30529;53.570;9.964;2022-10-22T17:31:02;16.00;99.90
44817;DHT22;30529;53.570;9.964;2022-10-22T17:33:29;15.90;99.90
44817;DHT22;30529;53.570;9.964;2022-10-22T17:35:56;15.90;99.90
44817;DHT22;30529;53.570;9.964;2022-10-22T17:38:23;15.90;99.90
44817;DHT22;30529;53.570;9.964;2022-10-22T17:40:49;15.90;99.90
44817;DHT22;30529;53.570;9.964;2022-10-22T17:43:15;15.80;99.90
44817;DHT22;30529;53.570;9.964;2022-10-22T17:45:41;15.60;99.90
44817;DHT22;30529;53.570;9.964;2022-10-22T17:48:07;15.50;99.90
44817;DHT22;30529;53.570;9.964;2022-10-22T17:50:33;15.40;99.90
44817;DHT22;30529;53.570;9.964;2022-10-22T17:53:00;15.30;99.90